<?xml version="1.0" encoding="UTF-8" standalone="no" ?>
<gpx xmlns="http://www.topografix.com/GPX/1/1" xmlns:xsi="http://www.w3.org/2001/XMLSchema-instance" xsi:schemaLocation="http://www.topografix.com/GPX/1/1 http://www.topografix.com/GPX/1/1/gpx.xsd" version="1.1" creator="VisuGPX - https://www.visugpx.com">
  <metadata>
    <name>14761592-Marche Brigueil facile 9,5 km</name>
  </metadata>
  <trk>
    <name><![CDATA[14761592-Marche Brigueil facile]]></name>
    <extensions>
      <line xmlns="http://www.topografix.com/GPX/gpx_style/0/2">
        <color>0000FF</color>
        <width>4</width>
      </line>
    </extensions>
    <trkseg>
      <trkpt lat="46.3933" lon="1.08772">
        <ele>150</ele>
        <time>2022-05-17T05:02:12Z</time>
      </trkpt>
      <trkpt lat="46.39419" lon="1.08779">
        <ele>147</ele>
        <time>2022-05-17T05:03:23Z</time>
      </trkpt>
      <trkpt lat="46.39506" lon="1.08772">
        <ele>145</ele>
        <time>2022-05-17T05:04:33Z</time>
      </trkpt>
      <trkpt lat="46.39626" lon="1.08798">
        <ele>145</ele>
        <time>2022-05-17T05:06:10Z</time>
      </trkpt>
      <trkpt lat="46.3967" lon="1.08858">
        <ele>145</ele>
        <time>2022-05-17T05:06:59Z</time>
      </trkpt>
      <trkpt lat="46.39721" lon="1.08916">
        <ele>145</ele>
        <time>2022-05-17T05:07:51Z</time>
      </trkpt>
      <trkpt lat="46.39798" lon="1.08968">
        <ele>142</ele>
        <time>2022-05-17T05:08:59Z</time>
      </trkpt>
      <trkpt lat="46.39857" lon="1.09023">
        <ele>143</ele>
        <time>2022-05-17T05:09:55Z</time>
      </trkpt>
      <trkpt lat="46.39926" lon="1.09124">
        <ele>148</ele>
        <time>2022-05-17T05:11:13Z</time>
      </trkpt>
      <trkpt lat="46.40028" lon="1.09204">
        <ele>150</ele>
        <time>2022-05-17T05:12:46Z</time>
      </trkpt>
      <trkpt lat="46.40091" lon="1.09266">
        <ele>155</ele>
        <time>2022-05-17T05:13:47Z</time>
      </trkpt>
      <trkpt lat="46.40139" lon="1.09362">
        <ele>161</ele>
        <time>2022-05-17T05:14:52Z</time>
      </trkpt>
      <trkpt lat="46.4016" lon="1.09427">
        <ele>160</ele>
        <time>2022-05-17T05:15:32Z</time>
      </trkpt>
      <trkpt lat="46.4015" lon="1.09521">
        <ele>162</ele>
        <time>2022-05-17T05:16:25Z</time>
      </trkpt>
      <trkpt lat="46.40139" lon="1.09594">
        <ele>163</ele>
        <time>2022-05-17T05:17:06Z</time>
      </trkpt>
      <trkpt lat="46.40156" lon="1.09667">
        <ele>166</ele>
        <time>2022-05-17T05:17:48Z</time>
      </trkpt>
      <trkpt lat="46.40205" lon="1.09671">
        <ele>172</ele>
        <time>2022-05-17T05:18:28Z</time>
      </trkpt>
      <trkpt lat="46.40273" lon="1.09541">
        <ele>178</ele>
        <time>2022-05-17T05:19:58Z</time>
      </trkpt>
      <trkpt lat="46.40311" lon="1.09502">
        <ele>180</ele>
        <time>2022-05-17T05:20:35Z</time>
      </trkpt>
      <trkpt lat="46.40376" lon="1.09678">
        <ele>184</ele>
        <time>2022-05-17T05:22:25Z</time>
      </trkpt>
      <trkpt lat="46.40401" lon="1.09796">
        <ele>186</ele>
        <time>2022-05-17T05:23:33Z</time>
      </trkpt>
      <trkpt lat="46.40426" lon="1.09914">
        <ele>188</ele>
        <time>2022-05-17T05:24:42Z</time>
      </trkpt>
      <trkpt lat="46.40459" lon="1.10109">
        <ele>186</ele>
        <time>2022-05-17T05:26:33Z</time>
      </trkpt>
      <trkpt lat="46.40654" lon="1.10041">
        <ele>187</ele>
        <time>2022-05-17T05:29:13Z</time>
      </trkpt>
      <trkpt lat="46.40681" lon="1.10274">
        <ele>187</ele>
        <time>2022-05-17T05:31:24Z</time>
      </trkpt>
      <trkpt lat="46.40697" lon="1.1045">
        <ele>184</ele>
        <time>2022-05-17T05:33:02Z</time>
      </trkpt>
      <trkpt lat="46.40693" lon="1.10697">
        <ele>183</ele>
        <time>2022-05-17T05:35:18Z</time>
      </trkpt>
      <trkpt lat="46.40685" lon="1.10886">
        <ele>180</ele>
        <time>2022-05-17T05:37:02Z</time>
      </trkpt>
      <trkpt lat="46.4078" lon="1.11064">
        <ele>178</ele>
        <time>2022-05-17T05:39:07Z</time>
      </trkpt>
      <trkpt lat="46.40827" lon="1.11292">
        <ele>178</ele>
        <time>2022-05-17T05:41:18Z</time>
      </trkpt>
      <trkpt lat="46.40886" lon="1.11394">
        <ele>178</ele>
        <time>2022-05-17T05:42:32Z</time>
      </trkpt>
      <trkpt lat="46.40847" lon="1.11706">
        <ele>185</ele>
        <time>2022-05-17T05:45:27Z</time>
      </trkpt>
      <trkpt lat="46.40836" lon="1.11911">
        <ele>184</ele>
        <time>2022-05-17T05:47:20Z</time>
      </trkpt>
      <trkpt lat="46.40853" lon="1.1198">
        <ele>184</ele>
        <time>2022-05-17T05:48:01Z</time>
      </trkpt>
      <trkpt lat="46.40901" lon="1.12018">
        <ele>185</ele>
        <time>2022-05-17T05:48:44Z</time>
      </trkpt>
      <trkpt lat="46.40937" lon="1.12194">
        <ele>187</ele>
        <time>2022-05-17T05:50:26Z</time>
      </trkpt>
      <trkpt lat="46.40872" lon="1.12186">
        <ele>187</ele>
        <time>2022-05-17T05:51:18Z</time>
      </trkpt>
      <trkpt lat="46.40789" lon="1.12133">
        <ele>188</ele>
        <time>2022-05-17T05:52:31Z</time>
      </trkpt>
      <trkpt lat="46.40632" lon="1.12157">
        <ele>190</ele>
        <time>2022-05-17T05:54:37Z</time>
      </trkpt>
      <trkpt lat="46.4046" lon="1.12139">
        <ele>193</ele>
        <time>2022-05-17T05:56:55Z</time>
      </trkpt>
      <trkpt lat="46.40318" lon="1.12122">
        <ele>192</ele>
        <time>2022-05-17T05:58:49Z</time>
      </trkpt>
      <trkpt lat="46.40207" lon="1.12143">
        <ele>191</ele>
        <time>2022-05-17T06:00:19Z</time>
      </trkpt>
      <trkpt lat="46.39971" lon="1.1223">
        <ele>190</ele>
        <time>2022-05-17T06:03:34Z</time>
      </trkpt>
      <trkpt lat="46.39904" lon="1.12295">
        <ele>191</ele>
        <time>2022-05-17T06:04:38Z</time>
      </trkpt>
      <trkpt lat="46.39792" lon="1.12356">
        <ele>195</ele>
        <time>2022-05-17T06:06:14Z</time>
      </trkpt>
      <trkpt lat="46.3967" lon="1.12403">
        <ele>197</ele>
        <time>2022-05-17T06:07:55Z</time>
      </trkpt>
      <trkpt lat="46.39561" lon="1.12508">
        <ele>198</ele>
        <time>2022-05-17T06:09:40Z</time>
      </trkpt>
      <trkpt lat="46.39508" lon="1.12619">
        <ele>199</ele>
        <time>2022-05-17T06:10:55Z</time>
      </trkpt>
      <trkpt lat="46.39459" lon="1.12623">
        <ele>199</ele>
        <time>2022-05-17T06:11:34Z</time>
      </trkpt>
      <trkpt lat="46.39466" lon="1.12432">
        <ele>197</ele>
        <time>2022-05-17T06:13:19Z</time>
      </trkpt>
      <trkpt lat="46.39299" lon="1.12233">
        <ele>194</ele>
        <time>2022-05-17T06:16:13Z</time>
      </trkpt>
      <trkpt lat="46.39192" lon="1.12121">
        <ele>189</ele>
        <time>2022-05-17T06:17:58Z</time>
      </trkpt>
      <trkpt lat="46.3922" lon="1.12038">
        <ele>191</ele>
        <time>2022-05-17T06:18:49Z</time>
      </trkpt>
      <trkpt lat="46.39045" lon="1.11862">
        <ele>183</ele>
        <time>2022-05-17T06:21:40Z</time>
      </trkpt>
      <trkpt lat="46.39033" lon="1.11739">
        <ele>184</ele>
        <time>2022-05-17T06:22:48Z</time>
      </trkpt>
      <trkpt lat="46.39068" lon="1.11396">
        <ele>181</ele>
        <time>2022-05-17T06:26:00Z</time>
      </trkpt>
      <trkpt lat="46.3907" lon="1.11219">
        <ele>181</ele>
        <time>2022-05-17T06:27:38Z</time>
      </trkpt>
      <trkpt lat="46.39011" lon="1.10941">
        <ele>183</ele>
        <time>2022-05-17T06:30:18Z</time>
      </trkpt>
      <trkpt lat="46.38996" lon="1.10678">
        <ele>183</ele>
        <time>2022-05-17T06:32:44Z</time>
      </trkpt>
      <trkpt lat="46.38961" lon="1.10516">
        <ele>180</ele>
        <time>2022-05-17T06:34:18Z</time>
      </trkpt>
      <trkpt lat="46.38956" lon="1.10353">
        <ele>181</ele>
        <time>2022-05-17T06:35:48Z</time>
      </trkpt>
      <trkpt lat="46.39013" lon="1.10209">
        <ele>179</ele>
        <time>2022-05-17T06:37:20Z</time>
      </trkpt>
      <trkpt lat="46.39065" lon="1.10064">
        <ele>177</ele>
        <time>2022-05-17T06:38:50Z</time>
      </trkpt>
      <trkpt lat="46.391" lon="1.09902">
        <ele>175</ele>
        <time>2022-05-17T06:40:24Z</time>
      </trkpt>
      <trkpt lat="46.3913" lon="1.0974">
        <ele>167</ele>
        <time>2022-05-17T06:41:56Z</time>
      </trkpt>
      <trkpt lat="46.3917" lon="1.09606">
        <ele>161</ele>
        <time>2022-05-17T06:43:17Z</time>
      </trkpt>
      <trkpt lat="46.39215" lon="1.09444">
        <ele>148</ele>
        <time>2022-05-17T06:44:53Z</time>
      </trkpt>
      <trkpt lat="46.39274" lon="1.09281">
        <ele>139</ele>
        <time>2022-05-17T06:46:35Z</time>
      </trkpt>
      <trkpt lat="46.39334" lon="1.09224">
        <ele>139</ele>
        <time>2022-05-17T06:47:32Z</time>
      </trkpt>
      <trkpt lat="46.39237" lon="1.09115">
        <ele>141</ele>
        <time>2022-05-17T06:49:11Z</time>
      </trkpt>
      <trkpt lat="46.39391" lon="1.09141">
        <ele>140</ele>
        <time>2022-05-17T06:51:15Z</time>
      </trkpt>
      <trkpt lat="46.39481" lon="1.09108">
        <ele>139</ele>
        <time>2022-05-17T06:52:29Z</time>
      </trkpt>
      <trkpt lat="46.39461" lon="1.08964">
        <ele>136</ele>
        <time>2022-05-17T06:53:50Z</time>
      </trkpt>
      <trkpt lat="46.39416" lon="1.0892">
        <ele>136</ele>
        <time>2022-05-17T06:54:34Z</time>
      </trkpt>
      <trkpt lat="46.39327" lon="1.0883">
        <ele>150</ele>
        <time>2022-05-17T06:56:01Z</time>
      </trkpt>
    </trkseg>
  </trk>
</gpx>